createdAt,value
2022-11-29T00:01:49.351Z,70.29
2022-11-29T00:04:16.663Z,70.46
2022-11-29T00:06:43.842Z,70.34
2022-11-29T00:09:13.451Z,70.45
2022-11-29T00:12:01.471Z,71.04
2022-11-29T00:14:29.953Z,71.15
2022-11-29T00:17:02.993Z,70.80
2022-11-29T00:19:36.937Z,69.75
2022-11-29T00:22:05.008Z,70.73
2022-11-29T00:24:37.784Z,71.02
2022-11-29T00:27:05.118Z,71.04
2022-11-29T00:29:33.532Z,69.90
2022-11-29T00:32:02.981Z,70.44
2022-11-29T00:34:30.372Z,70.92
2022-11-29T00:36:57.748Z,71.18
2022-11-29T00:39:25.170Z,70.44
2022-11-29T00:41:57.470Z,71.22
2022-11-29T00:44:27.175Z,71.22
2022-11-29T00:46:54.532Z,70.63
2022-11-29T00:49:21.688Z,71.30
2022-11-29T00:51:49.053Z,71.77
2022-11-29T00:54:16.972Z,71.69
2022-11-29T00:56:44.427Z,71.61
2022-11-29T00:59:11.724Z,70.61
2022-11-29T01:01:41.069Z,71.30
2022-11-29T01:04:08.659Z,70.99
2022-11-29T01:06:35.971Z,71.12
2022-11-29T01:09:04.946Z,70.55
2022-11-29T01:11:32.589Z,68.75
2022-11-29T01:14:03.732Z,69.14
2022-11-29T01:16:32.488Z,71.25
2022-11-29T01:19:00.601Z,71.03
2022-11-29T01:21:29.643Z,70.99
2022-11-29T01:23:57.540Z,71.28
2022-11-29T01:26:28.316Z,70.42
2022-11-29T01:28:58.632Z,70.81
2022-11-29T01:31:32.327Z,71.11
2022-11-29T01:34:03.116Z,71.05
2022-11-29T01:36:36.807Z,70.63
2022-11-29T01:39:06.401Z,70.99
2022-11-29T01:41:37.333Z,71.17
2022-11-29T01:44:28.512Z,71.30
2022-11-29T01:46:57.562Z,71.51
2022-11-29T01:49:47.263Z,71.46
2022-11-29T01:52:31.187Z,70.78
2022-11-29T01:55:03.564Z,71.01
2022-11-29T01:57:34.118Z,71.15
2022-11-29T02:00:41.011Z,71.53
2022-11-29T02:03:17.296Z,71.41
2022-11-29T02:05:53.924Z,71.53
2022-11-29T02:08:31.878Z,71.30
2022-11-29T02:11:17.403Z,71.25
2022-11-29T02:14:23.212Z,71.38
2022-11-29T02:17:21.285Z,71.39
2022-11-29T02:20:27.776Z,71.21
2022-11-29T02:23:20.622Z,71.21
2022-11-29T02:26:22.015Z,70.95
2022-11-29T02:29:32.137Z,71.51
2022-11-29T02:32:31.052Z,71.44
2022-11-29T02:35:19.392Z,71.08
2022-11-29T02:38:30.091Z,71.80
2022-11-29T02:41:48.121Z,71.80
2022-11-29T02:44:47.757Z,71.57
2022-11-29T02:47:57.032Z,71.72
2022-11-29T02:50:42.285Z,71.40
2022-11-29T02:53:29.641Z,71.99
2022-11-29T02:56:50.646Z,72.00
2022-11-29T02:59:34.118Z,71.31
2022-11-29T03:02:32.655Z,71.94
2022-11-29T03:05:42.010Z,71.60
2022-11-29T03:08:54.799Z,71.76
2022-11-29T03:12:07.966Z,71.84
2022-11-29T03:15:23.784Z,71.82
2022-11-29T03:18:40.499Z,71.34
2022-11-29T03:21:33.252Z,71.20
2022-11-29T03:24:20.896Z,71.05
2022-11-29T03:27:02.371Z,71.26
2022-11-29T03:30:03.418Z,70.32
2022-11-29T03:32:45.594Z,70.60
2022-11-29T03:35:31.089Z,70.38
2022-11-29T03:38:40.919Z,71.09
2022-11-29T03:41:32.754Z,70.51
2022-11-29T03:44:50.375Z,72.01
2022-11-29T03:47:31.427Z,71.74
2022-11-29T03:50:14.565Z,71.74
2022-11-29T03:53:23.043Z,71.72
2022-11-29T03:55:58.473Z,71.78
2022-11-29T03:59:00.082Z,71.52
2022-11-29T04:01:57.176Z,71.84
2022-11-29T04:05:17.072Z,71.56
2022-11-29T04:08:22.373Z,71.66
2022-11-29T04:11:54.875Z,72.49
2022-11-29T04:15:15.790Z,72.60
2022-11-29T04:18:18.953Z,71.39
2022-11-29T04:21:19.739Z,72.26
2022-11-29T04:24:07.875Z,72.17
2022-11-29T04:27:11.751Z,71.19
2022-11-29T04:30:04.695Z,71.63
2022-11-29T04:33:32.426Z,70.83
2022-11-29T04:37:07.214Z,71.46
2022-11-29T04:39:54.205Z,70.88
2022-11-29T04:43:01.291Z,70.90
2022-11-29T04:46:01.297Z,70.98
2022-11-29T04:49:02.190Z,70.88
2022-11-29T04:52:32.049Z,70.79
2022-11-29T04:55:26.373Z,71.45
2022-11-29T04:58:37.787Z,71.84
2022-11-29T05:02:08.581Z,72.34
2022-11-29T05:04:56.641Z,72.07
2022-11-29T05:07:39.917Z,70.93
2022-11-29T05:11:06.888Z,71.26
2022-11-29T05:14:16.650Z,72.20
2022-11-29T05:16:54.063Z,72.32
2022-11-29T05:19:58.301Z,71.62
2022-11-29T05:22:40.586Z,72.02
2022-11-29T05:25:54.775Z,70.68
2022-11-29T05:28:51.119Z,72.28
2022-11-29T05:32:18.182Z,71.76
2022-11-29T05:35:22.256Z,71.41
2022-11-29T05:37:57.588Z,70.55
2022-11-29T05:41:08.739Z,71.33
2022-11-29T05:44:08.744Z,71.67
2022-11-29T05:47:10.159Z,71.62
2022-11-29T05:50:17.547Z,71.88
2022-11-29T05:52:56.432Z,71.81
2022-11-29T05:55:41.521Z,71.94
2022-11-29T05:58:50.197Z,71.75
2022-11-29T06:01:24.146Z,71.62
2022-11-29T06:04:20.269Z,71.13
2022-11-29T06:07:16.388Z,71.13
2022-11-29T06:09:48.716Z,71.16
2022-11-29T06:12:26.843Z,71.61
2022-11-29T06:16:16.793Z,72.42
2022-11-29T06:20:10.243Z,72.02
2022-11-29T06:23:28.893Z,72.63
2022-11-29T06:26:34.408Z,72.14
2022-11-29T06:29:25.751Z,72.11
2022-11-29T06:32:17.266Z,71.99
2022-11-29T06:35:07.721Z,71.90
2022-11-29T06:37:50.820Z,71.96
2022-11-29T06:40:18.491Z,71.48
2022-11-29T06:42:45.904Z,71.95
2022-11-29T06:45:16.009Z,71.17
2022-11-29T06:47:58.188Z,72.39
2022-11-29T06:50:56.059Z,72.58
2022-11-29T06:53:51.883Z,72.25
2022-11-29T06:56:44.285Z,71.84
2022-11-29T06:59:38.369Z,72.05
2022-11-29T07:02:28.104Z,71.74
2022-11-29T07:05:32.197Z,72.51
2022-11-29T07:08:27.178Z,71.79
2022-11-29T07:10:56.046Z,71.32
2022-11-29T07:13:23.990Z,71.64
2022-11-29T07:16:04.296Z,71.51
2022-11-29T07:19:20.834Z,72.26
2022-11-29T07:22:33.540Z,71.73
2022-11-29T07:25:51.308Z,71.32
2022-11-29T07:29:14.195Z,71.56
2022-11-29T07:32:17.993Z,72.09
2022-11-29T07:35:14.410Z,72.03
2022-11-29T07:38:42.143Z,71.81
2022-11-29T07:41:21.179Z,71.55
2022-11-29T07:44:16.945Z,71.94
2022-11-29T07:46:44.646Z,72.07
2022-11-29T07:49:12.213Z,71.46
2022-11-29T07:51:39.734Z,72.03
2022-11-29T07:54:07.394Z,72.06
2022-11-29T07:56:34.644Z,71.62
2022-11-29T07:59:01.953Z,71.86
2022-11-29T08:01:29.320Z,70.90
2022-11-29T08:03:56.543Z,71.66
2022-11-29T08:06:26.714Z,72.09
2022-11-29T08:08:57.508Z,71.77
2022-11-29T08:11:25.358Z,71.77
2022-11-29T08:14:05.162Z,71.53
2022-11-29T08:16:33.349Z,71.27
2022-11-29T08:19:00.759Z,71.06
2022-11-29T08:21:30.251Z,71.03
2022-11-29T08:23:57.592Z,71.24
2022-11-29T08:26:29.809Z,71.33
2022-11-29T08:28:58.998Z,70.92
2022-11-29T08:31:26.413Z,70.91
2022-11-29T08:33:54.031Z,71.13
2022-11-29T08:36:21.706Z,70.76
2022-11-29T08:38:49.114Z,70.29
2022-11-29T08:41:18.059Z,70.27
2022-11-29T08:43:45.859Z,70.83
2022-11-29T08:46:18.301Z,71.50
2022-11-29T08:48:47.733Z,71.18
2022-11-29T08:51:15.848Z,71.40
2022-11-29T08:53:43.456Z,70.99
2022-11-29T08:59:07.991Z,71.11
2022-11-29T09:01:35.370Z,71.43
2022-11-29T09:04:03.124Z,71.08
2022-11-29T09:06:40.940Z,71.66
2022-11-29T09:09:08.480Z,71.17
2022-11-29T09:11:36.878Z,71.21
2022-11-29T09:14:08.073Z,70.44
2022-11-29T09:16:38.478Z,70.80
2022-11-29T09:19:07.353Z,70.29
2022-11-29T09:21:38.648Z,70.80
2022-11-29T09:24:06.926Z,71.26
2022-11-29T09:26:37.996Z,70.64
2022-11-29T09:29:07.388Z,70.36
2022-11-29T09:31:35.891Z,71.10
2022-11-29T09:34:03.695Z,70.90
2022-11-29T09:36:39.794Z,70.12
2022-11-29T09:39:07.101Z,70.96
2022-11-29T09:42:07.624Z,70.42
2022-11-29T09:45:07.312Z,70.52
2022-11-29T09:48:22.011Z,71.03
2022-11-29T09:51:30.047Z,70.66
2022-11-29T09:54:24.936Z,70.57
2022-11-29T09:56:55.752Z,70.05
2022-11-29T09:59:41.062Z,69.73
2022-11-29T10:02:36.860Z,70.28
2022-11-29T10:05:26.274Z,70.93
2022-11-29T10:08:14.796Z,70.76
2022-11-29T10:10:54.873Z,69.85
2022-11-29T10:13:49.237Z,71.92
2022-11-29T10:16:32.500Z,70.44
2022-11-29T10:19:33.414Z,72.26
2022-11-29T10:22:31.390Z,71.51
2022-11-29T10:25:02.792Z,70.54
2022-11-29T10:27:57.287Z,69.64
2022-11-29T10:30:22.115Z,71.26
2022-11-29T10:33:00.698Z,71.29
2022-11-29T10:35:29.649Z,70.95
2022-11-29T10:41:09.441Z,70.34
2022-11-29T10:43:38.287Z,69.16
2022-11-29T10:46:17.252Z,68.95
2022-11-29T10:48:44.868Z,71.45
2022-11-29T10:51:17.927Z,69.84
2022-11-29T10:53:46.781Z,69.70
2022-11-29T10:56:29.332Z,72.21
2022-11-29T10:59:08.978Z,71.12
2022-11-29T11:01:42.411Z,71.13
2022-11-29T11:04:44.884Z,70.39
2022-11-29T11:07:40.937Z,69.06
2022-11-29T11:10:28.264Z,67.96
2022-11-29T11:13:20.315Z,68.03
2022-11-29T11:15:47.856Z,67.29
2022-11-29T11:18:26.566Z,67.71
2022-11-29T11:20:59.075Z,67.28
2022-11-29T11:23:42.382Z,64.60
2022-11-29T11:26:14.954Z,65.54
2022-11-29T11:29:00.676Z,65.78
2022-11-29T11:31:38.322Z,65.25
2022-11-29T11:34:24.369Z,65.95
2022-11-29T11:36:53.541Z,65.41
2022-11-29T11:39:24.137Z,65.24
2022-11-29T11:42:11.476Z,64.88
2022-11-29T11:44:50.139Z,64.41
2022-11-29T11:47:27.354Z,66.20
2022-11-29T11:50:04.782Z,65.70
2022-11-29T11:52:53.254Z,66.19
2022-11-29T11:55:40.913Z,64.92
2022-11-29T11:58:23.410Z,64.07
2022-11-29T12:01:04.499Z,65.44
2022-11-29T12:04:06.672Z,65.98
2022-11-29T12:07:38.739Z,62.77
2022-11-29T12:10:23.090Z,61.38
2022-11-29T12:12:53.567Z,59.95
2022-11-29T12:15:29.720Z,62.06
2022-11-29T12:18:16.538Z,59.67
2022-11-29T12:21:08.743Z,61.80
2022-11-29T12:24:02.695Z,61.39
2022-11-29T12:29:34.265Z,60.95
2022-11-29T12:32:52.300Z,61.80
2022-11-29T12:36:15.540Z,59.58
2022-11-29T12:39:39.255Z,60.63
2022-11-29T12:42:40.845Z,60.82
2022-11-29T12:45:52.389Z,60.93
2022-11-29T12:48:26.840Z,59.97
2022-11-29T12:51:09.938Z,60.03
2022-11-29T12:53:59.323Z,61.27
2022-11-29T12:56:48.181Z,61.08
2022-11-29T13:00:07.014Z,62.49
2022-11-29T13:02:59.131Z,61.93
2022-11-29T13:06:14.358Z,62.12
2022-11-29T13:09:23.795Z,61.86
2022-11-29T13:12:29.445Z,62.97
2022-11-29T13:15:18.044Z,62.04
2022-11-29T13:18:02.578Z,62.32
2022-11-29T13:20:59.641Z,62.88
2022-11-29T13:24:10.194Z,63.66
2022-11-29T13:26:43.440Z,62.32
2022-11-29T13:29:18.796Z,62.58
2022-11-29T13:31:47.805Z,62.82
2022-11-29T13:34:21.213Z,62.17
2022-11-29T13:37:10.803Z,63.08
2022-11-29T13:40:26.054Z,61.62
2022-11-29T13:43:44.057Z,62.08
2022-11-29T13:46:59.678Z,62.71
2022-11-29T13:50:44.040Z,62.29
2022-11-29T13:53:23.694Z,62.79
2022-11-29T13:56:01.413Z,64.41
2022-11-29T13:58:28.658Z,64.27
2022-11-29T14:01:13.228Z,63.72
2022-11-29T14:04:00.901Z,64.55
2022-11-29T14:06:40.679Z,63.97
2022-11-29T14:09:43.756Z,63.84
2022-11-29T14:12:39.532Z,65.35
2022-11-29T14:15:23.096Z,65.68
2022-11-29T14:17:59.216Z,64.64
2022-11-29T14:20:28.038Z,66.37
2022-11-29T14:23:06.574Z,66.20
2022-11-29T14:25:55.822Z,68.42
2022-11-29T14:28:48.342Z,68.82
2022-11-29T14:31:54.036Z,68.07
2022-11-29T14:34:33.440Z,67.92
2022-11-29T14:37:19.995Z,68.96
2022-11-29T14:39:54.648Z,69.06
2022-11-29T14:42:26.434Z,68.35
2022-11-29T14:45:04.854Z,68.20
2022-11-29T14:47:38.961Z,67.79
2022-11-29T14:50:10.488Z,68.51
2022-11-29T14:52:51.631Z,68.60
2022-11-29T14:55:24.594Z,69.26
2022-11-29T14:58:06.014Z,68.56
2022-11-29T15:00:56.141Z,70.02
2022-11-29T15:03:43.431Z,68.79
2022-11-29T15:06:30.214Z,68.94
2022-11-29T15:09:12.852Z,68.88
2022-11-29T15:11:59.643Z,69.01
2022-11-29T15:14:55.898Z,69.93
2022-11-29T15:17:47.972Z,70.57
2022-11-29T15:21:02.563Z,70.77
2022-11-29T15:23:44.116Z,70.15
2022-11-29T15:26:21.577Z,70.34
2022-11-29T15:28:52.527Z,70.34
2022-11-29T15:31:22.296Z,70.51
2022-11-29T15:33:51.589Z,70.42
2022-11-29T15:36:24.358Z,69.88
2022-11-29T15:39:04.349Z,70.30
2022-11-29T15:41:35.762Z,70.61
2022-11-29T15:44:21.361Z,70.78
2022-11-29T15:46:50.963Z,70.58
2022-11-29T15:49:38.282Z,70.31
2022-11-29T15:52:20.670Z,69.89
2022-11-29T15:55:02.140Z,70.57
2022-11-29T15:57:41.179Z,69.61
2022-11-29T16:00:20.285Z,69.26
2022-11-29T16:03:06.645Z,68.91
2022-11-29T16:05:39.180Z,70.29
2022-11-29T16:08:19.491Z,70.89
2022-11-29T16:10:53.015Z,71.43
2022-11-29T16:13:31.194Z,71.60
2022-11-29T16:16:10.243Z,70.17
2022-11-29T16:18:41.650Z,69.40
2022-11-29T16:21:32.680Z,69.04
2022-11-29T16:24:21.729Z,70.34
2022-11-29T16:26:51.090Z,69.89
2022-11-29T16:29:36.513Z,69.33
2022-11-29T16:32:41.370Z,68.33
2022-11-29T16:35:22.446Z,68.95
2022-11-29T16:37:50.955Z,69.61
2022-11-29T16:40:30.398Z,69.51
2022-11-29T16:43:19.666Z,70.37
2022-11-29T16:45:47.363Z,69.58
2022-11-29T16:48:24.600Z,69.51
2022-11-29T16:51:10.429Z,69.68
2022-11-29T16:53:48.473Z,70.83
2022-11-29T16:56:19.731Z,70.64
2022-11-29T16:59:24.862Z,70.80
2022-11-29T17:01:48.429Z,70.29
2022-11-29T17:04:24.473Z,70.05
2022-11-29T17:06:59.571Z,70.68
2022-11-29T17:09:36.222Z,69.99
2022-11-29T17:12:04.008Z,70.22
2022-11-29T17:14:32.844Z,70.12
2022-11-29T17:17:07.319Z,70.38
2022-11-29T17:19:34.864Z,70.71
2022-11-29T17:22:02.300Z,70.76
2022-11-29T17:24:29.651Z,70.68
2022-11-29T17:27:01.258Z,70.62
2022-11-29T17:29:33.186Z,70.79
2022-11-29T17:32:00.528Z,70.42
2022-11-29T17:34:27.707Z,71.14
2022-11-29T17:36:54.971Z,70.82
2022-11-29T17:39:24.517Z,70.47
2022-11-29T17:41:54.239Z,70.49
2022-11-29T17:44:21.624Z,69.57
2022-11-29T17:46:48.779Z,70.25
2022-11-29T17:49:18.716Z,70.94
2022-11-29T17:51:53.787Z,71.12
2022-11-29T17:54:23.267Z,70.68
2022-11-29T17:56:51.852Z,70.25
2022-11-29T17:59:19.443Z,69.85
2022-11-29T18:01:47.482Z,68.47
2022-11-29T18:04:30.889Z,70.02
2022-11-29T18:07:18.929Z,69.49
2022-11-29T18:09:53.630Z,69.07
2022-11-29T18:12:46.242Z,70.43
2022-11-29T18:15:13.569Z,70.14
2022-11-29T18:17:43.708Z,70.79
2022-11-29T18:20:13.984Z,70.60
2022-11-29T18:22:41.439Z,70.14
2022-11-29T18:25:37.624Z,70.54
2022-11-29T18:28:02.298Z,69.71
2022-11-29T18:31:11.049Z,69.96
2022-11-29T18:33:40.818Z,69.51
2022-11-29T18:36:36.935Z,68.66
2022-11-29T18:39:17.584Z,70.10
2022-11-29T18:41:52.591Z,70.13
2022-11-29T18:44:29.172Z,70.92
2022-11-29T18:46:58.770Z,70.91
2022-11-29T18:49:27.269Z,70.98
2022-11-29T18:51:58.261Z,70.76
2022-11-29T18:54:25.695Z,70.21
2022-11-29T18:56:55.257Z,70.09
2022-11-29T18:59:47.458Z,70.91
2022-11-29T19:02:19.975Z,70.26
2022-11-29T19:04:50.131Z,71.20
2022-11-29T19:07:18.650Z,70.56
2022-11-29T19:09:46.272Z,70.42
2022-11-29T19:12:38.362Z,70.78
2022-11-29T19:15:10.323Z,70.75
2022-11-29T19:17:42.945Z,70.08
2022-11-29T19:20:12.343Z,70.38
2022-11-29T19:22:42.174Z,70.61
2022-11-29T19:25:11.371Z,70.84
2022-11-29T19:27:45.227Z,70.21
2022-11-29T19:30:16.246Z,70.78
2022-11-29T19:32:43.971Z,69.95
2022-11-29T19:35:11.312Z,70.70
2022-11-29T19:37:38.654Z,70.67
2022-11-29T19:40:09.270Z,70.43
2022-11-29T19:42:51.909Z,69.93
2022-11-29T19:45:21.926Z,70.16
2022-11-29T19:47:51.199Z,70.54
2022-11-29T19:50:43.352Z,69.74
2022-11-29T19:53:13.608Z,70.15
2022-11-29T19:55:58.836Z,70.45
2022-11-29T19:59:04.561Z,69.30
2022-11-29T20:01:42.062Z,69.29
2022-11-29T20:04:14.041Z,67.70
2022-11-29T20:06:57.927Z,68.45
2022-11-29T20:09:28.605Z,65.85
2022-11-29T20:11:55.864Z,66.95
2022-11-29T20:14:23.204Z,66.77
2022-11-29T20:16:50.498Z,65.55
2022-11-29T20:19:18.148Z,66.09
2022-11-29T20:21:49.378Z,66.24
2022-11-29T20:24:19.512Z,66.53
2022-11-29T20:26:50.655Z,65.83
2022-11-29T20:29:27.038Z,64.19
2022-11-29T20:31:54.409Z,65.04
2022-11-29T20:34:24.891Z,64.11
2022-11-29T20:37:58.721Z,65.13
2022-11-29T20:41:19.405Z,64.53
2022-11-29T20:44:01.955Z,64.61
2022-11-29T20:46:30.124Z,63.64
2022-11-29T20:49:03.151Z,63.34
2022-11-29T20:51:53.273Z,63.46
2022-11-29T20:54:20.710Z,64.08
2022-11-29T20:56:47.985Z,63.43
2022-11-29T20:59:17.938Z,63.04
2022-11-29T21:01:45.452Z,62.49
2022-11-29T21:04:23.208Z,62.07
2022-11-29T21:06:58.410Z,62.02
2022-11-29T21:09:25.701Z,61.67
2022-11-29T21:11:57.185Z,61.21
2022-11-29T21:14:26.177Z,64.28
2022-11-29T21:16:54.675Z,64.73
2022-11-29T21:19:26.032Z,64.17
2022-11-29T21:22:08.562Z,63.19
2022-11-29T21:25:19.644Z,63.77
2022-11-29T21:27:51.812Z,64.73
2022-11-29T21:30:24.979Z,64.83
2022-11-29T21:32:56.491Z,64.44
2022-11-29T21:35:25.334Z,65.02
2022-11-29T21:38:00.516Z,65.32
2022-11-29T21:40:28.463Z,65.49
2022-11-29T21:42:58.220Z,65.89
2022-11-29T21:45:25.610Z,66.68
2022-11-29T21:47:55.361Z,66.17
2022-11-29T21:50:22.768Z,64.80
2022-11-29T21:52:52.563Z,64.51
2022-11-29T21:55:21.976Z,64.08
2022-11-29T21:57:49.330Z,63.51
2022-11-29T22:00:17.946Z,63.10
2022-11-29T22:02:45.720Z,64.09
2022-11-29T22:05:13.144Z,62.64
2022-11-29T22:07:40.524Z,62.48
2022-11-29T22:10:13.317Z,62.63
2022-11-29T22:12:51.801Z,61.76
2022-11-29T22:15:24.640Z,61.70
2022-11-29T22:17:55.881Z,61.90
2022-11-29T22:20:23.180Z,60.82
2022-11-29T22:22:53.504Z,61.48
2022-11-29T22:25:24.452Z,61.95
2022-11-29T22:27:51.762Z,62.00
2022-11-29T22:30:27.905Z,61.59
2022-11-29T22:32:57.128Z,61.53
2022-11-29T22:35:24.465Z,61.58
2022-11-29T22:37:51.759Z,62.88
2022-11-29T22:40:19.261Z,62.72
2022-11-29T22:42:52.614Z,63.72
2022-11-29T22:45:20.415Z,63.37
2022-11-29T22:47:48.074Z,63.05
2022-11-29T22:50:15.394Z,64.29
2022-11-29T22:52:42.822Z,64.43
2022-11-29T22:55:10.371Z,64.97
2022-11-29T22:57:37.562Z,64.58
2022-11-29T23:00:06.433Z,64.27
2022-11-29T23:02:33.851Z,64.54
2022-11-29T23:05:02.301Z,65.29
2022-11-29T23:07:29.753Z,64.76
2022-11-29T23:10:04.144Z,65.49
2022-11-29T23:12:31.513Z,65.68
2022-11-29T23:14:58.971Z,65.42
2022-11-29T23:17:27.374Z,65.55
2022-11-29T23:19:54.623Z,65.77
2022-11-29T23:22:22.430Z,66.16
2022-11-29T23:24:49.715Z,66.07
2022-11-29T23:27:17.183Z,66.47
2022-11-29T23:29:44.729Z,65.73
2022-11-29T23:32:12.043Z,65.68
2022-11-29T23:34:39.247Z,66.17
2022-11-29T23:37:06.534Z,67.05
2022-11-29T23:39:33.928Z,66.80
2022-11-29T23:42:01.057Z,67.25
2022-11-29T23:44:28.388Z,67.63
2022-11-29T23:46:55.713Z,68.24
2022-11-29T23:49:23.021Z,68.49
2022-11-29T23:51:50.605Z,68.44
2022-11-29T23:54:17.757Z,68.95
2022-11-29T23:56:45.086Z,69.20
2022-11-29T23:59:12.465Z,69.38
